Time;durP1;ratioP1;P1;durP2;ratioP2;P2;SDS_P1;SDS_P2;PMS_P1;PMS_P2;Temp;Humidity;BMP_temperature;BMP_pressure;BME280_temperature;BME280_humidity;BME280_pressure;Samples;Min_cycle;Max_cycle;Signal;HPM_P1;HPM_P2
2023/12/18 00:00:12;;;;;;;21.08;8.90;;;8.60;99.90;;;;;;5051932;28;20142;-77
2023/12/18 00:02:37;;;;;;;24.20;9.10;;;8.70;99.90;;;;;;5030725;28;20045;-75
2023/12/18 00:05:03;;;;;;;22.60;8.30;;;8.60;99.90;;;;;;5044748;28;20048;-77
2023/12/18 00:07:29;;;;;;;22.13;9.45;;;8.60;99.90;;;;;;5049571;28;20055;-72
2023/12/18 00:09:55;;;;;;;21.45;8.60;;;8.60;99.90;;;;;;5031104;28;20046;-78
2023/12/18 00:12:20;;;;;;;20.30;9.10;;;8.50;99.90;;;;;;5046091;28;20510;-76
2023/12/18 00:14:46;;;;;;;20.50;8.50;;;8.60;99.90;;;;;;5051488;28;20045;-77
2023/12/18 00:17:12;;;;;;;24.08;9.77;;;8.50;99.90;;;;;;5051632;28;20043;-77
2023/12/18 00:19:37;;;;;;;23.08;9.27;;;8.50;99.90;;;;;;5051904;28;20051;-77
2023/12/18 00:22:03;;;;;;;26.10;9.57;;;8.50;99.90;;;;;;5050672;28;20501;-75
2023/12/18 00:24:29;;;;;;;26.13;9.48;;;8.50;99.90;;;;;;5046508;28;20049;-77
2023/12/18 00:26:55;;;;;;;26.75;9.50;;;8.50;99.90;;;;;;5041725;28;20118;-77
2023/12/18 00:29:20;;;;;;;25.23;9.52;;;8.50;99.90;;;;;;5051860;28;20078;-77
2023/12/18 00:31:47;;;;;;;21.73;8.90;;;8.50;99.90;;;;;;5050282;28;20124;-77
2023/12/18 00:34:13;;;;;;;23.35;9.30;;;8.50;99.90;;;;;;5051013;28;20107;-76
2023/12/18 00:36:39;;;;;;;23.90;9.13;;;8.50;99.90;;;;;;5042085;28;20484;-76
2023/12/18 00:39:05;;;;;;;23.13;9.60;;;8.50;99.90;;;;;;5034710;28;20041;-77
2023/12/18 00:41:32;;;;;;;24.65;9.82;;;8.50;99.90;;;;;;5050511;28;20514;-77
2023/12/18 00:43:58;;;;;;;22.70;9.55;;;8.50;99.90;;;;;;5050482;28;20059;-77
2023/12/18 00:46:25;;;;;;;21.42;8.18;;;8.40;99.90;;;;;;5047948;28;20044;-77
2023/12/18 00:48:51;;;;;;;27.98;9.32;;;8.50;99.90;;;;;;5051549;28;20412;-77
2023/12/18 00:51:17;;;;;;;20.65;8.70;;;8.50;99.90;;;;;;5067275;28;20040;-77
2023/12/18 00:53:43;;;;;;;25.83;9.32;;;8.50;99.90;;;;;;5051079;28;20045;-76
2023/12/18 00:56:09;;;;;;;23.67;8.95;;;8.40;99.90;;;;;;5049835;28;20100;-75
2023/12/18 00:58:36;;;;;;;19.65;7.78;;;8.50;99.90;;;;;;5050957;28;20110;-75
2023/12/18 01:01:01;;;;;;;23.10;9.20;;;8.40;99.90;;;;;;5051492;28;20055;-77
2023/12/18 01:03:28;;;;;;;17.33;8.80;;;8.50;99.90;;;;;;5050557;28;20041;-77
2023/12/18 01:05:54;;;;;;;24.00;8.48;;;8.50;99.90;;;;;;5044053;28;20144;-76
2023/12/18 01:08:20;;;;;;;21.73;8.98;;;8.50;99.90;;;;;;5050097;28;20116;-77
2023/12/18 01:10:45;;;;;;;24.88;9.35;;;8.50;99.90;;;;;;5049951;28;20033;-77
2023/12/18 01:13:11;;;;;;;16.23;7.25;;;8.50;99.90;;;;;;5050576;28;20048;-77
2023/12/18 01:15:37;;;;;;;18.00;7.40;;;8.50;99.90;;;;;;5049780;28;20091;-75
2023/12/18 01:18:03;;;;;;;18.05;8.65;;;8.50;99.90;;;;;;5046052;28;20454;-77
2023/12/18 01:20:28;;;;;;;16.27;7.20;;;8.60;99.90;;;;;;5050094;28;20055;-76
2023/12/18 01:22:54;;;;;;;20.23;7.82;;;8.60;99.90;;;;;;5052376;28;20052;-78
2023/12/18 01:25:19;;;;;;;27.55;8.13;;;8.50;99.90;;;;;;5050412;28;20125;-76
2023/12/18 01:27:45;;;;;;;20.33;7.50;;;8.60;99.90;;;;;;5053843;28;20052;-75
2023/12/18 01:30:11;;;;;;;22.88;7.65;;;8.60;99.90;;;;;;5055172;28;20041;-77
2023/12/18 01:32:37;;;;;;;22.25;7.38;;;8.60;99.90;;;;;;5055329;28;20041;-77
2023/12/18 01:35:03;;;;;;;22.83;7.63;;;8.60;99.90;;;;;;5047281;28;20574;-78
2023/12/18 01:37:29;;;;;;;18.25;8.00;;;8.60;99.90;;;;;;5050378;28;20049;-76
2023/12/18 01:39:54;;;;;;;19.65;7.40;;;8.60;99.90;;;;;;5052446;28;20057;-76
2023/12/18 01:42:20;;;;;;;19.67;7.95;;;8.60;99.90;;;;;;5053795;28;20542;-77
2023/12/18 01:44:48;;;;;;;26.00;7.97;;;8.60;99.90;;;;;;5051645;28;20080;-75
2023/12/18 01:47:15;;;;;;;21.20;6.75;;;8.60;99.90;;;;;;5046230;28;20128;-78
2023/12/18 01:49:41;;;;;;;20.88;7.50;;;8.60;99.90;;;;;;5046791;28;20511;-77
2023/12/18 01:52:07;;;;;;;24.30;7.80;;;8.60;99.90;;;;;;5053666;28;20462;-77
2023/12/18 01:54:33;;;;;;;23.60;8.20;;;8.60;99.90;;;;;;5052754;28;20137;-76
2023/12/18 01:57:01;;;;;;;16.50;6.95;;;8.60;99.90;;;;;;5053358;28;20041;-77
2023/12/18 01:59:27;;;;;;;18.73;6.78;;;8.60;99.90;;;;;;5036482;28;20048;-76
2023/12/18 02:01:53;;;;;;;16.20;6.90;;;8.60;99.90;;;;;;5053127;28;20552;-75
2023/12/18 02:04:19;;;;;;;19.73;7.25;;;8.60;99.90;;;;;;5037064;28;20107;-75
2023/12/18 02:06:46;;;;;;;25.23;7.35;;;8.60;99.90;;;;;;5052021;28;20094;-76
2023/12/18 02:09:12;;;;;;;19.10;7.85;;;8.60;99.90;;;;;;5036679;28;20068;-76
2023/12/18 02:11:38;;;;;;;19.00;7.95;;;8.60;99.90;;;;;;5034594;28;20053;-76
2023/12/18 02:14:05;;;;;;;16.92;6.90;;;8.60;99.90;;;;;;5048780;28;20060;-76
2023/12/18 02:16:31;;;;;;;17.95;8.00;;;8.60;99.90;;;;;;5053633;28;20455;-76
2023/12/18 02:18:56;;;;;;;22.00;7.60;;;8.60;99.90;;;;;;5052860;28;20123;-77
2023/12/18 02:21:22;;;;;;;24.60;7.28;;;8.60;99.90;;;;;;5053869;28;20041;-77
2023/12/18 02:23:51;;;;;;;20.42;7.45;;;8.60;99.90;;;;;;5050391;28;20045;-76
2023/12/18 02:26:17;;;;;;;15.43;7.35;;;8.60;99.90;;;;;;5069782;28;20053;-76
2023/12/18 02:28:46;;;;;;;24.20;7.07;;;8.60;99.90;;;;;;5033468;28;20052;-76
2023/12/18 02:31:13;;;;;;;16.40;6.65;;;8.60;99.90;;;;;;5050025;28;20826;-76
2023/12/18 02:33:39;;;;;;;15.77;6.32;;;8.60;99.90;;;;;;5052128;28;20109;-75
2023/12/18 02:36:05;;;;;;;21.15;6.70;;;8.60;99.90;;;;;;5052159;28;20493;-76
2023/12/18 02:38:31;;;;;;;20.75;6.88;;;8.60;99.90;;;;;;5049735;28;20053;-77
2023/12/18 02:40:56;;;;;;;18.33;5.60;;;8.60;99.90;;;;;;5064446;28;20134;-77
2023/12/18 02:43:22;;;;;;;18.50;6.45;;;8.70;99.90;;;;;;5050811;28;20046;-76
2023/12/18 02:45:47;;;;;;;18.80;6.05;;;8.70;99.90;;;;;;5036303;28;20177;-74
2023/12/18 02:48:13;;;;;;;22.77;5.85;;;8.60;99.90;;;;;;5053427;28;20044;-77
2023/12/18 02:50:39;;;;;;;23.15;6.40;;;8.70;99.90;;;;;;5069641;28;20037;-75
2023/12/18 02:53:04;;;;;;;19.70;5.82;;;8.70;99.90;;;;;;5051158;28;20479;-77
2023/12/18 02:55:30;;;;;;;22.25;5.97;;;8.70;99.90;;;;;;5053052;28;20123;-78
2023/12/18 02:57:56;;;;;;;15.25;4.95;;;8.70;99.90;;;;;;5068602;28;20044;-75
2023/12/18 03:00:21;;;;;;;14.25;6.25;;;8.60;99.90;;;;;;5049336;28;20128;-77
2023/12/18 03:02:47;;;;;;;16.35;5.15;;;8.60;99.90;;;;;;5028966;28;20037;-76
2023/12/18 03:05:14;;;;;;;14.23;5.45;;;8.60;99.90;;;;;;5052794;28;20131;-77
2023/12/18 03:07:40;;;;;;;20.40;5.90;;;8.70;99.90;;;;;;5052779;28;20058;-75
2023/12/18 03:10:06;;;;;;;18.23;6.05;;;8.70;99.90;;;;;;5051416;28;20036;-76
2023/12/18 03:12:32;;;;;;;19.35;5.53;;;8.70;99.90;;;;;;5049655;28;20550;-77
2023/12/18 03:14:57;;;;;;;16.48;5.63;;;8.70;99.90;;;;;;5024832;28;20049;-73
2023/12/18 03:17:23;;;;;;;18.55;6.10;;;8.70;99.90;;;;;;5034109;28;20048;-76
2023/12/18 03:19:49;;;;;;;18.42;5.15;;;8.70;99.90;;;;;;5031591;28;20045;-74
2023/12/18 03:22:15;;;;;;;23.85;5.50;;;8.70;99.90;;;;;;5044074;28;20036;-76
2023/12/18 03:24:42;;;;;;;15.85;5.32;;;8.70;99.90;;;;;;5050751;28;20049;-76
2023/12/18 03:27:08;;;;;;;11.65;5.28;;;8.60;99.90;;;;;;5052907;28;20053;-76
2023/12/18 03:29:34;;;;;;;19.80;5.78;;;8.70;99.90;;;;;;5041013;28;20502;-74
2023/12/18 03:32:00;;;;;;;17.45;5.53;;;8.70;99.90;;;;;;5065076;28;20128;-74
2023/12/18 03:34:26;;;;;;;16.80;5.90;;;8.70;99.90;;;;;;5051229;28;20483;-75
2023/12/18 03:36:52;;;;;;;16.70;5.60;;;8.70;99.90;;;;;;5046646;28;20052;-76
2023/12/18 03:39:17;;;;;;;18.75;5.78;;;8.60;99.90;;;;;;5038416;28;20444;-76
2023/12/18 03:41:43;;;;;;;16.38;5.50;;;8.70;99.90;;;;;;5048495;28;20048;-77
2023/12/18 03:44:09;;;;;;;18.83;5.95;;;8.70;99.90;;;;;;5033015;28;20045;-77
2023/12/18 03:46:34;;;;;;;17.75;6.38;;;8.70;99.90;;;;;;5034647;28;20079;-77
2023/12/18 03:49:00;;;;;;;16.45;5.65;;;8.70;99.90;;;;;;5039631;28;20502;-77
2023/12/18 03:51:26;;;;;;;19.70;6.22;;;8.70;99.90;;;;;;5050780;28;20040;-77
2023/12/18 03:53:51;;;;;;;22.17;6.20;;;8.60;99.90;;;;;;5034829;28;20048;-75
2023/12/18 03:56:17;;;;;;;23.13;5.90;;;8.70;99.90;;;;;;5048026;28;20480;-77
2023/12/18 03:58:43;;;;;;;20.95;5.95;;;8.70;99.90;;;;;;5052078;28;20056;-76
2023/12/18 04:01:09;;;;;;;14.30;5.50;;;8.70;99.90;;;;;;5032822;28;20048;-76
2023/12/18 04:03:34;;;;;;;18.42;5.47;;;8.70;99.90;;;;;;5025528;28;20064;-78
2023/12/18 04:06:00;;;;;;;17.52;5.85;;;8.70;99.90;;;;;;5043528;28;20037;-77
2023/12/18 04:08:26;;;;;;;21.58;5.70;;;8.60;99.90;;;;;;5048797;28;20103;-76
2023/12/18 04:10:51;;;;;;;14.20;5.57;;;8.70;99.90;;;;;;5052775;28;20047;-76
2023/12/18 04:13:17;;;;;;;14.02;6.22;;;8.70;99.90;;;;;;5016615;28;20049;-76
2023/12/18 04:15:43;;;;;;;17.00;5.55;;;8.70;99.90;;;;;;5051582;28;20048;-77
2023/12/18 04:18:08;;;;;;;24.45;6.03;;;8.70;99.90;;;;;;5050777;28;20049;-75
2023/12/18 04:20:34;;;;;;;19.77;6.05;;;8.70;99.90;;;;;;5051248;28;20464;-76
2023/12/18 04:23:00;;;;;;;17.23;6.00;;;8.70;99.90;;;;;;5034673;28;20123;-76
2023/12/18 04:25:26;;;;;;;24.80;7.22;;;8.70;99.90;;;;;;5050970;28;20357;-74
2023/12/18 04:27:52;;;;;;;19.45;5.70;;;8.70;99.90;;;;;;5046413;28;20081;-75
2023/12/18 04:30:18;;;;;;;19.52;6.32;;;8.70;99.90;;;;;;5036518;28;20045;-77
2023/12/18 04:32:44;;;;;;;21.70;7.15;;;8.70;99.90;;;;;;5052131;28;20056;-77
2023/12/18 04:35:09;;;;;;;21.25;6.53;;;8.70;99.90;;;;;;5050530;28;20114;-74
2023/12/18 04:37:35;;;;;;;23.70;6.78;;;8.70;99.90;;;;;;5048944;28;20144;-77
2023/12/18 04:40:03;;;;;;;15.85;5.50;;;8.70;99.90;;;;;;5039582;28;20083;-76
2023/12/18 04:42:29;;;;;;;15.43;5.78;;;8.70;99.90;;;;;;5052299;28;20084;-77
2023/12/18 04:44:55;;;;;;;19.63;6.45;;;8.70;99.90;;;;;;5052098;28;20488;-77
2023/12/18 04:47:21;;;;;;;20.13;6.70;;;8.70;99.90;;;;;;5052744;28;20079;-76
2023/12/18 04:49:47;;;;;;;21.92;7.22;;;8.70;99.90;;;;;;5052592;28;20151;-76
2023/12/18 04:52:13;;;;;;;18.40;6.00;;;8.70;99.90;;;;;;5033490;28;20156;-75
2023/12/18 04:54:38;;;;;;;20.38;7.10;;;8.70;99.90;;;;;;5048142;28;20060;-76
2023/12/18 04:57:04;;;;;;;20.98;7.13;;;8.70;99.90;;;;;;5028960;28;20041;-77
2023/12/18 04:59:30;;;;;;;21.60;7.25;;;8.70;99.90;;;;;;5051595;28;20391;-77
2023/12/18 05:01:56;;;;;;;16.20;6.65;;;8.70;99.90;;;;;;5050998;28;20059;-76
2023/12/18 05:04:22;;;;;;;18.48;6.38;;;8.70;99.90;;;;;;5030281;28;20121;-77
2023/12/18 05:06:47;;;;;;;20.83;6.75;;;8.70;99.90;;;;;;5044139;28;20048;-77
2023/12/18 05:09:14;;;;;;;16.17;6.38;;;8.70;99.90;;;;;;5050781;28;20076;-74
2023/12/18 05:11:39;;;;;;;21.67;7.95;;;8.70;99.90;;;;;;5049726;28;20045;-77
2023/12/18 05:14:05;;;;;;;17.45;6.82;;;8.70;99.90;;;;;;5051897;28;20056;-77
2023/12/18 05:16:31;;;;;;;20.95;7.22;;;8.70;99.90;;;;;;5049198;28;20079;-77
2023/12/18 05:18:56;;;;;;;19.40;7.03;;;8.80;99.90;;;;;;5050687;28;20053;-76
2023/12/18 05:21:22;;;;;;;23.10;6.60;;;8.70;99.90;;;;;;5049334;28;20040;-76
2023/12/18 05:23:49;;;;;;;19.88;6.65;;;8.70;99.90;;;;;;5051527;28;20048;-76
2023/12/18 05:26:15;;;;;;;22.27;7.35;;;8.70;99.90;;;;;;5049924;28;20049;-73
2023/12/18 05:28:41;;;;;;;20.52;7.10;;;8.80;99.90;;;;;;5047067;28;20423;-76
2023/12/18 05:31:10;;;;;;;22.75;7.60;;;8.80;99.90;;;;;;5050420;28;20041;-76
2023/12/18 05:33:36;;;;;;;26.42;7.10;;;8.80;99.90;;;;;;5040056;28;20045;-76
2023/12/18 05:36:02;;;;;;;22.70;7.13;;;8.80;99.90;;;;;;5050457;28;20049;-77
2023/12/18 05:38:28;;;;;;;19.88;7.35;;;8.70;99.90;;;;;;5043627;28;20103;-75
2023/12/18 05:40:54;;;;;;;18.42;7.15;;;8.80;99.90;;;;;;5049233;28;20135;-75
2023/12/18 05:43:19;;;;;;;18.35;6.68;;;8.80;99.90;;;;;;5042596;28;20042;-74
2023/12/18 05:45:45;;;;;;;18.35;6.78;;;8.80;99.90;;;;;;5051466;28;20044;-76
2023/12/18 05:48:11;;;;;;;22.45;8.02;;;8.80;99.90;;;;;;5050400;28;20056;-77
2023/12/18 05:50:37;;;;;;;19.05;6.93;;;8.80;99.90;;;;;;5049757;28;20391;-76
2023/12/18 05:53:03;;;;;;;24.15;7.95;;;8.80;99.90;;;;;;5045220;28;20056;-77
2023/12/18 05:55:28;;;;;;;14.45;6.30;;;8.80;99.90;;;;;;5049635;28;20048;-76
2023/12/18 05:57:54;;;;;;;21.20;7.88;;;8.80;99.90;;;;;;5051303;28;20049;-77
2023/12/18 06:00:20;;;;;;;18.63;6.97;;;8.80;99.90;;;;;;5066302;28;20037;-74
2023/12/18 06:02:45;;;;;;;20.92;7.70;;;8.80;99.90;;;;;;5049504;28;20055;-77
2023/12/18 06:05:12;;;;;;;24.50;7.50;;;8.90;99.90;;;;;;5048546;28;20041;-77
2023/12/18 06:07:37;;;;;;;18.80;6.43;;;8.80;99.90;;;;;;5032759;28;20072;-76
2023/12/18 06:10:03;;;;;;;15.50;6.97;;;8.80;99.90;;;;;;5042919;28;20130;-77
2023/12/18 06:12:29;;;;;;;21.27;8.00;;;8.80;99.90;;;;;;5048714;28;20049;-75
2023/12/18 06:14:55;;;;;;;21.65;8.05;;;8.80;99.90;;;;;;5052932;28;20492;-76
2023/12/18 06:17:21;;;;;;;19.88;7.90;;;8.80;99.90;;;;;;5052189;28;20045;-75
2023/12/18 06:19:47;;;;;;;17.65;7.38;;;8.80;99.90;;;;;;5047281;28;20115;-76
2023/12/18 06:22:13;;;;;;;24.10;6.63;;;8.90;99.90;;;;;;5053197;28;20049;-75
2023/12/18 06:24:39;;;;;;;21.02;7.10;;;8.80;99.90;;;;;;5048916;28;20421;-78
2023/12/18 06:27:05;;;;;;;20.00;6.30;;;8.90;99.90;;;;;;5030818;28;20057;-76
2023/12/18 06:29:31;;;;;;;17.55;7.32;;;8.80;99.90;;;;;;5039930;28;20488;-77
2023/12/18 06:31:57;;;;;;;16.50;6.75;;;8.90;99.90;;;;;;5052503;28;20048;-76
2023/12/18 06:34:23;;;;;;;19.67;8.23;;;8.90;99.90;;;;;;5036464;28;20504;-76
2023/12/18 06:36:49;;;;;;;19.40;7.28;;;8.90;99.90;;;;;;5051853;28;20087;-76
2023/12/18 06:39:14;;;;;;;18.65;7.22;;;8.90;99.90;;;;;;5033392;28;20503;-76
2023/12/18 06:41:40;;;;;;;18.27;7.38;;;8.90;99.90;;;;;;5046272;28;20059;-76
2023/12/18 06:44:06;;;;;;;18.33;7.32;;;8.90;99.90;;;;;;5053819;28;20079;-77
2023/12/18 06:46:35;;;;;;;23.48;7.72;;;8.80;99.90;;;;;;5053086;28;20445;-75
2023/12/18 06:49:02;;;;;;;20.27;8.07;;;8.90;99.90;;;;;;5033494;28;20045;-76
2023/12/18 06:51:28;;;;;;;21.23;7.57;;;8.90;99.90;;;;;;5044047;28;20053;-73
2023/12/18 06:53:54;;;;;;;21.17;8.10;;;8.80;99.90;;;;;;5052122;28;20049;-76
2023/12/18 06:56:19;;;;;;;22.00;7.93;;;8.90;99.90;;;;;;5048270;28;20041;-77
2023/12/18 06:58:45;;;;;;;12.65;5.65;;;8.90;99.90;;;;;;5048775;28;20145;-76
2023/12/18 07:01:13;;;;;;;22.50;8.35;;;8.90;99.90;;;;;;5052522;28;20059;-77
2023/12/18 07:03:39;;;;;;;20.98;7.72;;;8.90;99.90;;;;;;5040522;28;20049;-77
2023/12/18 07:06:06;;;;;;;20.70;8.68;;;8.90;99.90;;;;;;5051436;28;20060;-77
2023/12/18 07:08:31;;;;;;;18.88;7.20;;;8.90;99.90;;;;;;5048260;28;20053;-75
2023/12/18 07:10:57;;;;;;;25.63;7.93;;;8.90;99.90;;;;;;5041688;28;20407;-77
2023/12/18 07:13:24;;;;;;;23.15;7.78;;;8.90;99.90;;;;;;5035878;28;20509;-77
2023/12/18 07:15:49;;;;;;;28.17;9.38;;;8.80;99.90;;;;;;5052601;28;20112;-77
2023/12/18 07:18:15;;;;;;;19.77;8.52;;;8.90;99.90;;;;;;5041490;28;20568;-77
2023/12/18 07:20:43;;;;;;;23.60;8.63;;;8.90;99.90;;;;;;5049472;28;20373;-76
2023/12/18 07:23:09;;;;;;;24.77;9.00;;;8.90;99.90;;;;;;5043996;28;20531;-76
2023/12/18 07:25:35;;;;;;;25.27;9.73;;;8.90;99.90;;;;;;5021404;28;20500;-77
2023/12/18 07:28:00;;;;;;;32.05;10.40;;;8.90;99.90;;;;;;5050301;28;20075;-75
2023/12/18 07:30:26;;;;;;;23.02;8.55;;;8.80;99.90;;;;;;5038882;28;20140;-77
2023/12/18 07:32:52;;;;;;;24.75;9.13;;;8.80;99.90;;;;;;5030756;28;20045;-76
2023/12/18 07:35:18;;;;;;;25.15;9.55;;;8.90;99.90;;;;;;5051422;28;20043;-77
2023/12/18 07:37:44;;;;;;;21.92;9.48;;;8.80;99.90;;;;;;5047675;28;20049;-76
2023/12/18 07:40:10;;;;;;;24.67;9.10;;;8.80;99.90;;;;;;5050138;28;20103;-76
2023/12/18 07:42:36;;;;;;;21.17;9.80;;;8.80;99.90;;;;;;5066240;28;20105;-72
2023/12/18 07:45:02;;;;;;;25.92;9.07;;;8.80;99.90;;;;;;5047141;28;20048;-75
2023/12/18 07:47:28;;;;;;;21.95;10.55;;;8.90;99.90;;;;;;5045973;28;20502;-78
2023/12/18 07:49:54;;;;;;;21.15;9.85;;;8.90;99.90;;;;;;5049511;28;20041;-76
2023/12/18 07:52:19;;;;;;;23.83;10.00;;;8.80;99.90;;;;;;5050483;28;20496;-76
2023/12/18 07:54:45;;;;;;;21.73;9.38;;;8.80;99.90;;;;;;5045622;28;20442;-76
2023/12/18 07:57:11;;;;;;;31.92;11.13;;;8.80;99.90;;;;;;5049589;28;20076;-77
2023/12/18 07:59:39;;;;;;;24.65;9.60;;;8.80;99.90;;;;;;5028858;28;20052;-74
2023/12/18 08:02:09;;;;;;;24.20;10.02;;;9.00;99.90;;;;;;5047275;28;20067;-75
2023/12/18 08:04:35;;;;;;;21.25;10.00;;;8.90;99.90;;;;;;5050205;28;20044;-76
2023/12/18 08:07:01;;;;;;;25.40;9.63;;;8.90;99.90;;;;;;5050671;28;20049;-77
2023/12/18 08:09:27;;;;;;;21.65;9.55;;;8.90;99.90;;;;;;5034232;28;20392;-73
2023/12/18 08:11:54;;;;;;;24.02;9.90;;;8.90;99.90;;;;;;5040503;28;20163;-75
2023/12/18 08:14:20;;;;;;;25.42;9.95;;;8.90;99.90;;;;;;5031047;28;20393;-77
2023/12/18 08:16:45;;;;;;;22.42;9.38;;;8.90;99.90;;;;;;5041469;28;20429;-77
2023/12/18 08:19:11;;;;;;;22.83;9.20;;;8.90;99.90;;;;;;5047569;28;20071;-75
2023/12/18 08:21:37;;;;;;;17.40;8.80;;;9.00;99.90;;;;;;5034565;28;20063;-75
2023/12/18 08:24:02;;;;;;;27.50;10.07;;;9.00;99.90;;;;;;5050116;28;20086;-76
2023/12/18 08:26:28;;;;;;;25.35;10.13;;;8.90;99.90;;;;;;5033572;28;20057;-77
2023/12/18 08:28:54;;;;;;;27.95;10.25;;;8.90;99.90;;;;;;5026782;28;20041;-74
2023/12/18 08:31:20;;;;;;;23.15;9.80;;;9.00;99.90;;;;;;5049848;28;20037;-76
2023/12/18 08:33:45;;;;;;;26.35;10.77;;;8.90;99.90;;;;;;5050307;28;20080;-74
2023/12/18 08:36:11;;;;;;;24.60;9.55;;;9.00;99.90;;;;;;5049202;28;20518;-75
2023/12/18 08:38:37;;;;;;;24.55;10.35;;;8.90;99.90;;;;;;5065758;28;20055;-77
2023/12/18 08:41:03;;;;;;;24.50;10.10;;;9.00;99.90;;;;;;5042326;28;20056;-73
2023/12/18 08:43:28;;;;;;;23.63;9.98;;;9.00;99.90;;;;;;5022256;28;20079;-74
2023/12/18 08:45:54;;;;;;;21.25;9.30;;;9.00;99.90;;;;;;5046861;28;20501;-76
2023/12/18 08:48:20;;;;;;;29.77;10.90;;;9.00;99.90;;;;;;5043534;28;20045;-77
2023/12/18 08:50:45;;;;;;;25.95;11.40;;;9.00;99.90;;;;;;5050135;28;20044;-73
2023/12/18 08:53:11;;;;;;;33.60;11.32;;;9.00;99.90;;;;;;5049224;28;20119;-76
2023/12/18 08:55:39;;;;;;;25.52;9.85;;;9.00;99.90;;;;;;5032012;28;20048;-76
2023/12/18 08:58:14;;;;;;;28.02;10.30;;;9.00;99.90;;;;;;5049750;28;20118;-75
2023/12/18 09:00:40;;;;;;;25.35;10.57;;;9.10;99.90;;;;;;5051264;28;20071;-74
2023/12/18 09:03:06;;;;;;;25.58;11.25;;;9.00;99.90;;;;;;5040653;28;20044;-73
2023/12/18 09:05:32;;;;;;;27.92;10.20;;;9.00;99.90;;;;;;5051585;28;20116;-73
2023/12/18 09:07:57;;;;;;;26.00;10.20;;;9.00;99.90;;;;;;5050456;28;20048;-72
2023/12/18 09:10:24;;;;;;;25.98;10.60;;;9.10;99.90;;;;;;5050954;28;20045;-72
2023/12/18 09:12:52;;;;;;;25.77;9.85;;;9.00;99.90;;;;;;5049986;28;20049;-72
2023/12/18 09:15:18;;;;;;;27.80;10.48;;;9.10;99.90;;;;;;5051438;28;20123;-72
2023/12/18 09:17:44;;;;;;;22.38;10.30;;;9.10;99.90;;;;;;5051166;28;20055;-71
2023/12/18 09:20:10;;;;;;;26.60;9.13;;;9.10;99.90;;;;;;5048534;28;20645;-73
2023/12/18 09:22:36;;;;;;;22.83;10.13;;;9.10;99.90;;;;;;5051369;28;20106;-71
2023/12/18 09:25:03;;;;;;;28.20;10.35;;;9.10;99.90;;;;;;5046135;28;20092;-72
2023/12/18 09:27:29;;;;;;;31.92;10.55;;;9.20;99.90;;;;;;5049932;28;20036;-72
2023/12/18 09:29:55;;;;;;;21.58;9.27;;;9.20;99.90;;;;;;5032812;28;20049;-72
2023/12/18 09:32:20;;;;;;;24.88;9.73;;;9.20;99.90;;;;;;5049690;28;20523;-72
2023/12/18 09:34:47;;;;;;;27.05;9.77;;;8.90;99.90;;;;;;5050937;28;20057;-72
2023/12/18 09:37:13;;;;;;;26.80;9.75;;;9.20;99.90;;;;;;5052995;28;20577;-72
2023/12/18 09:39:42;;;;;;;21.98;9.30;;;9.20;99.90;;;;;;5051324;28;20045;-72
2023/12/18 09:42:10;;;;;;;24.95;9.43;;;9.30;99.90;;;;;;5049838;28;20076;-71
2023/12/18 09:44:37;;;;;;;21.73;8.70;;;9.20;99.90;;;;;;5052342;28;20045;-71
2023/12/18 09:47:03;;;;;;;26.38;9.63;;;9.20;99.90;;;;;;5045019;28;20037;-73
2023/12/18 09:49:30;;;;;;;24.38;9.90;;;9.30;99.90;;;;;;5051810;28;20399;-73
2023/12/18 09:52:07;;;;;;;25.45;8.75;;;9.30;99.90;;;;;;5052964;28;20073;-74
2023/12/18 09:54:37;;;;;;;28.52;9.57;;;9.30;99.90;;;;;;5042993;28;20045;-72
2023/12/18 09:57:07;;;;;;;27.00;9.75;;;9.30;99.90;;;;;;5042874;28;20159;-74
2023/12/18 09:59:33;;;;;;;19.60;8.05;;;9.30;99.90;;;;;;5053483;28;20049;-74
2023/12/18 10:01:59;;;;;;;23.58;9.77;;;9.30;99.90;;;;;;5036673;28;20077;-72
2023/12/18 10:04:26;;;;;;;28.45;10.25;;;9.30;99.90;;;;;;5053134;28;20048;-74
2023/12/18 10:06:51;;;;;;;28.67;9.65;;;9.30;99.90;;;;;;5052499;28;20045;-73
2023/12/18 10:09:18;;;;;;;29.95;11.88;;;9.30;99.90;;;;;;5035154;28;20403;-73
2023/12/18 10:11:48;;;;;;;21.00;9.82;;;9.30;99.90;;;;;;5042263;28;20112;-74
2023/12/18 10:14:15;;;;;;;25.88;10.85;;;9.30;99.90;;;;;;5039675;28;20052;-75
2023/12/18 10:16:42;;;;;;;35.63;11.30;;;9.40;99.90;;;;;;5046017;28;20124;-75
2023/12/18 10:19:09;;;;;;;28.00;11.50;;;9.40;99.90;;;;;;5044129;28;20082;-75
2023/12/18 10:21:37;;;;;;;25.55;9.98;;;9.40;99.90;;;;;;5052792;28;20510;-75
2023/12/18 10:24:04;;;;;;;27.48;11.23;;;9.40;99.90;;;;;;5046660;28;20052;-74
2023/12/18 10:26:31;;;;;;;24.80;11.15;;;9.30;99.90;;;;;;5049327;28;20225;-75
2023/12/18 10:28:57;;;;;;;16.38;9.60;;;9.40;99.90;;;;;;5036063;28;20352;-74
2023/12/18 10:31:25;;;;;;;29.13;11.35;;;9.40;99.90;;;;;;5043113;28;20053;-75
2023/12/18 10:33:51;;;;;;;23.77;10.43;;;9.40;99.90;;;;;;5049167;28;20098;-76
2023/12/18 10:36:18;;;;;;;26.20;11.18;;;9.40;99.90;;;;;;5037522;28;20381;-75
2023/12/18 10:38:50;;;;;;;23.52;11.02;;;9.50;99.90;;;;;;5045417;28;20056;-75
2023/12/18 10:41:23;;;;;;;26.10;12.13;;;9.50;99.90;;;;;;5050685;28;20045;-75
2023/12/18 10:43:49;;;;;;;23.08;12.57;;;9.40;99.90;;;;;;5036371;28;20056;-75
2023/12/18 10:46:15;;;;;;;27.75;12.23;;;9.40;99.90;;;;;;5044711;28;20052;-72
2023/12/18 10:48:42;;;;;;;27.45;13.73;;;9.40;99.90;;;;;;5026791;28;20048;-76
2023/12/18 10:51:08;;;;;;;27.40;13.90;;;9.40;99.90;;;;;;5038374;28;20050;-74
2023/12/18 10:53:37;;;;;;;27.13;13.30;;;9.40;99.90;;;;;;5033367;28;20128;-74
2023/12/18 10:56:06;;;;;;;27.65;14.10;;;9.40;99.90;;;;;;5043175;28;20049;-74
2023/12/18 10:58:34;;;;;;;28.52;13.65;;;9.40;99.90;;;;;;5029394;28;20045;-75
2023/12/18 11:01:03;;;;;;;31.83;14.27;;;9.40;99.90;;;;;;5038243;28;20045;-76
2023/12/18 11:03:30;;;;;;;27.58;11.57;;;9.40;99.90;;;;;;5037321;28;20053;-76
2023/12/18 11:05:56;;;;;;;24.08;12.95;;;9.40;99.90;;;;;;5047145;28;20132;-75
2023/12/18 11:08:23;;;;;;;25.23;12.95;;;9.30;99.90;;;;;;5052295;28;20076;-77
2023/12/18 11:10:51;;;;;;;27.02;13.88;;;9.40;99.90;;;;;;5043143;28;20116;-77
2023/12/18 11:13:40;;;;;;;25.77;11.77;;;9.30;99.90;;;;;;5044410;28;20069;-78
2023/12/18 11:16:24;;;;;;;24.10;13.10;;;9.30;99.90;;;;;;5043347;28;20053;-75
2023/12/18 11:18:53;;;;;;;27.42;14.25;;;9.40;99.90;;;;;;5051985;28;20120;-78
2023/12/18 11:21:18;;;;;;;29.48;13.63;;;9.30;99.90;;;;;;5052606;28;20511;-77
2023/12/18 11:23:50;;;;;;;28.90;14.00;;;9.30;99.90;;;;;;5034319;28;20045;-77
2023/12/18 11:26:15;;;;;;;28.85;14.20;;;9.30;99.90;;;;;;5050052;28;20520;-76
2023/12/18 11:28:43;;;;;;;26.35;12.63;;;9.30;99.90;;;;;;5051464;28;20048;-76
2023/12/18 11:31:13;;;;;;;27.02;14.27;;;9.30;99.90;;;;;;5052005;28;20041;-78
2023/12/18 11:34:02;;;;;;;27.80;13.52;;;9.30;99.90;;;;;;5045500;28;20098;-75
2023/12/18 11:36:28;;;;;;;31.33;14.82;;;9.40;99.90;;;;;;5044625;28;20801;-77
2023/12/18 11:38:56;;;;;;;31.02;13.88;;;9.40;99.90;;;;;;5039805;28;20041;-76
2023/12/18 11:41:44;;;;;;;30.38;13.70;;;9.40;99.90;;;;;;5024455;28;20077;-75
2023/12/18 11:44:14;;;;;;;29.38;14.68;;;9.40;99.90;;;;;;5019295;28;20391;-76
2023/12/18 11:46:41;;;;;;;29.05;13.35;;;9.40;99.90;;;;;;5028811;28;20045;-75
2023/12/18 11:49:08;;;;;;;30.40;12.88;;;9.40;99.90;;;;;;5042171;28;20041;-75
2023/12/18 11:51:34;;;;;;;31.63;13.10;;;9.40;99.90;;;;;;5051005;28;20107;-77
2023/12/18 11:54:01;;;;;;;23.95;13.02;;;9.40;99.90;;;;;;5051126;28;20048;-75
2023/12/18 11:56:42;;;;;;;29.90;14.18;;;9.40;99.90;;;;;;5044484;28;20098;-75
2023/12/18 11:59:08;;;;;;;30.33;13.43;;;9.50;99.90;;;;;;5052289;28;20119;-75
2023/12/18 12:01:35;;;;;;;25.95;13.95;;;9.40;99.90;;;;;;5033318;28;20049;-75
2023/12/18 12:04:01;;;;;;;26.38;13.57;;;9.40;99.90;;;;;;5052067;28;20063;-75
2023/12/18 12:06:27;;;;;;;26.35;13.40;;;9.50;99.90;;;;;;5044756;28;20433;-76
2023/12/18 12:08:53;;;;;;;29.15;13.25;;;9.40;99.90;;;;;;5048593;28;20515;-77
2023/12/18 12:11:19;;;;;;;36.20;13.05;;;9.50;99.90;;;;;;5048070;28;20056;-76
2023/12/18 12:13:47;;;;;;;22.60;11.63;;;9.50;99.90;;;;;;5045018;28;20037;-74
2023/12/18 12:16:19;;;;;;;23.75;12.20;;;9.50;99.90;;;;;;5023766;28;20137;-75
2023/12/18 12:18:54;;;;;;;23.77;11.63;;;9.50;99.90;;;;;;5040457;28;20049;-75
2023/12/18 12:21:21;;;;;;;20.67;11.85;;;9.50;99.90;;;;;;5042322;28;20041;-75
2023/12/18 12:23:50;;;;;;;21.05;11.75;;;9.50;99.90;;;;;;5022620;28;20048;-75
2023/12/18 12:26:21;;;;;;;25.08;12.18;;;9.60;99.90;;;;;;5040937;28;20083;-76
2023/12/18 12:28:48;;;;;;;26.73;12.43;;;9.50;99.90;;;;;;5042493;28;20049;-76
2023/12/18 12:31:17;;;;;;;22.27;10.82;;;9.50;99.90;;;;;;5049323;28;20045;-76
2023/12/18 12:33:44;;;;;;;23.67;11.20;;;9.50;99.90;;;;;;5051631;28;20049;-76
2023/12/18 12:36:15;;;;;;;19.38;11.63;;;9.60;99.90;;;;;;5050298;28;20048;-76
2023/12/18 12:38:42;;;;;;;21.98;11.57;;;9.60;99.90;;;;;;5051884;28;20056;-75